sensor_id;sensor_type;location;lat;lon;timestamp;temperature;humidity
47779;DHT22;33538;48.432;11.350;2023-02-26T00:01:15;2.30;99.90
47779;DHT22;33538;48.432;11.350;2023-02-26T00:03:42;2.30;99.90
47779;DHT22;33538;48.432;11.350;2023-02-26T00:06:09;2.40;99.90
47779;DHT22;33538;48.432;11.350;2023-02-26T00:08:37;2.40;99.90
47779;DHT22;33538;48.432;11.350;2023-02-26T00:11:05;2.40;99.90
47779;DHT22;33538;48.432;11.350;2023-02-26T00:13:34;2.40;99.90
47779;DHT22;33538;48.432;11.350;2023-02-26T00:16:01;2.40;99.80
47779;DHT22;33538;48.432;11.350;2023-02-26T00:18:28;2.40;99.90
47779;DHT22;33538;48.432;11.350;2023-02-26T00:20:56;2.40;98.80
47779;DHT22;33538;48.432;11.350;2023-02-26T00:23:23;2.40;99.00
47779;DHT22;33538;48.432;11.350;2023-02-26T00:25:51;2.40;98.60
47779;DHT22;33538;48.432;11.350;2023-02-26T00:28:18;2.30;99.00
47779;DHT22;33538;48.432;11.350;2023-02-26T00:30:45;2.20;98.30
47779;DHT22;33538;48.432;11.350;2023-02-26T00:33:13;2.30;98.00
47779;DHT22;33538;48.432;11.350;2023-02-26T00:35:40;2.30;98.30
47779;DHT22;33538;48.432;11.350;2023-02-26T00:38:09;2.20;98.40
47779;DHT22;33538;48.432;11.350;2023-02-26T00:40:40;2.30;98.00
47779;DHT22;33538;48.432;11.350;2023-02-26T00:43:13;2.30;98.40
47779;DHT22;33538;48.432;11.350;2023-02-26T00:45:43;2.40;99.50
47779;DHT22;33538;48.432;11.350;2023-02-26T00:48:30;2.40;98.40
47779;DHT22;33538;48.432;11.350;2023-02-26T00:51:07;2.40;98.00
47779;DHT22;33538;48.432;11.350;2023-02-26T00:53:43;2.30;97.70
47779;DHT22;33538;48.432;11.350;2023-02-26T00:56:12;2.30;97.30
47779;DHT22;33538;48.432;11.350;2023-02-26T00:58:40;2.30;98.10
47779;DHT22;33538;48.432;11.350;2023-02-26T01:01:07;2.30;98.10
47779;DHT22;33538;48.432;11.350;2023-02-26T01:03:35;2.20;97.80
47779;DHT22;33538;48.432;11.350;2023-02-26T01:06:02;2.30;98.90
47779;DHT22;33538;48.432;11.350;2023-02-26T01:08:31;2.20;96.90
47779;DHT22;33538;48.432;11.350;2023-02-26T01:11:00;2.20;97.80
47779;DHT22;33538;48.432;11.350;2023-02-26T01:13:27;2.20;97.90
47779;DHT22;33538;48.432;11.350;2023-02-26T01:16:01;2.20;96.60
47779;DHT22;33538;48.432;11.350;2023-02-26T01:18:35;2.20;97.10
47779;DHT22;33538;48.432;11.350;2023-02-26T01:21:09;2.20;96.90
47779;DHT22;33538;48.432;11.350;2023-02-26T01:23:40;2.20;97.10
47779;DHT22;33538;48.432;11.350;2023-02-26T01:26:11;2.10;96.50
47779;DHT22;33538;48.432;11.350;2023-02-26T01:28:40;2.20;96.70
47779;DHT22;33538;48.432;11.350;2023-02-26T01:31:24;2.10;95.60
47779;DHT22;33538;48.432;11.350;2023-02-26T01:33:56;2.10;95.60
47779;DHT22;33538;48.432;11.350;2023-02-26T01:36:28;2.00;95.40
47779;DHT22;33538;48.432;11.350;2023-02-26T01:39:01;2.00;95.10
47779;DHT22;33538;48.432;11.350;2023-02-26T01:41:30;1.90;95.60
47779;DHT22;33538;48.432;11.350;2023-02-26T01:44:08;1.90;94.70
47779;DHT22;33538;48.432;11.350;2023-02-26T01:47:01;1.90;94.90
47779;DHT22;33538;48.432;11.350;2023-02-26T01:49:29;1.90;94.20
47779;DHT22;33538;48.432;11.350;2023-02-26T01:51:57;1.90;94.30
47779;DHT22;33538;48.432;11.350;2023-02-26T01:54:28;1.80;94.10
47779;DHT22;33538;48.432;11.350;2023-02-26T01:56:59;1.80;93.70
47779;DHT22;33538;48.432;11.350;2023-02-26T01:59:26;1.80;94.10
47779;DHT22;33538;48.432;11.350;2023-02-26T02:01:56;1.80;94.20
47779;DHT22;33538;48.432;11.350;2023-02-26T02:04:24;1.80;94.10
47779;DHT22;33538;48.432;11.350;2023-02-26T02:06:52;1.80;94.40
47779;DHT22;33538;48.432;11.350;2023-02-26T02:09:19;1.80;94.30
47779;DHT22;33538;48.432;11.350;2023-02-26T02:12:04;1.80;94.80
47779;DHT22;33538;48.432;11.350;2023-02-26T02:14:42;1.80;94.90
47779;DHT22;33538;48.432;11.350;2023-02-26T02:17:17;1.70;94.10
47779;DHT22;33538;48.432;11.350;2023-02-26T02:20:08;1.70;94.70
47779;DHT22;33538;48.432;11.350;2023-02-26T02:22:52;1.70;95.00
47779;DHT22;33538;48.432;11.350;2023-02-26T02:25:39;1.70;94.70
47779;DHT22;33538;48.432;11.350;2023-02-26T02:28:18;1.70;94.70
47779;DHT22;33538;48.432;11.350;2023-02-26T02:31:01;1.70;94.60
47779;DHT22;33538;48.432;11.350;2023-02-26T02:33:34;1.70;94.10
47779;DHT22;33538;48.432;11.350;2023-02-26T02:36:05;1.60;94.20
47779;DHT22;33538;48.432;11.350;2023-02-26T02:38:41;1.60;94.50
47779;DHT22;33538;48.432;11.350;2023-02-26T02:41:14;1.50;94.50
47779;DHT22;33538;48.432;11.350;2023-02-26T02:43:43;1.60;94.80
47779;DHT22;33538;48.432;11.350;2023-02-26T02:46:15;1.50;94.80
47779;DHT22;33538;48.432;11.350;2023-02-26T02:48:47;1.60;94.50
47779;DHT22;33538;48.432;11.350;2023-02-26T02:51:19;1.60;93.80
47779;DHT22;33538;48.432;11.350;2023-02-26T02:53:49;1.50;93.80
47779;DHT22;33538;48.432;11.350;2023-02-26T02:56:20;1.50;94.40
47779;DHT22;33538;48.432;11.350;2023-02-26T02:58:53;1.50;93.60
47779;DHT22;33538;48.432;11.350;2023-02-26T03:01:24;1.50;93.90
47779;DHT22;33538;48.432;11.350;2023-02-26T03:03:56;1.30;93.50
47779;DHT22;33538;48.432;11.350;2023-02-26T03:06:23;1.40;93.50
47779;DHT22;33538;48.432;11.350;2023-02-26T03:08:51;1.40;93.40
47779;DHT22;33538;48.432;11.350;2023-02-26T03:11:19;1.40;93.40
47779;DHT22;33538;48.432;11.350;2023-02-26T03:13:46;1.40;93.60
47779;DHT22;33538;48.432;11.350;2023-02-26T03:16:31;1.40;93.10
47779;DHT22;33538;48.432;11.350;2023-02-26T03:19:07;1.40;93.30
47779;DHT22;33538;48.432;11.350;2023-02-26T03:21:43;1.30;92.90
47779;DHT22;33538;48.432;11.350;2023-02-26T03:24:15;1.30;93.00
47779;DHT22;33538;48.432;11.350;2023-02-26T03:26:47;1.30;92.90
47779;DHT22;33538;48.432;11.350;2023-02-26T03:29:23;1.30;93.00
47779;DHT22;33538;48.432;11.350;2023-02-26T03:31:56;1.30;92.90
47779;DHT22;33538;48.432;11.350;2023-02-26T03:34:27;1.20;92.70
47779;DHT22;33538;48.432;11.350;2023-02-26T03:36:58;1.30;92.90
47779;DHT22;33538;48.432;11.350;2023-02-26T03:39:30;1.20;92.40
47779;DHT22;33538;48.432;11.350;2023-02-26T03:41:59;1.20;92.00
47779;DHT22;33538;48.432;11.350;2023-02-26T03:44:30;1.20;92.20
47779;DHT22;33538;48.432;11.350;2023-02-26T03:47:03;1.20;92.30
47779;DHT22;33538;48.432;11.350;2023-02-26T03:49:35;1.20;92.60
47779;DHT22;33538;48.432;11.350;2023-02-26T03:52:04;1.20;92.40
47779;DHT22;33538;48.432;11.350;2023-02-26T03:54:36;1.10;92.60
47779;DHT22;33538;48.432;11.350;2023-02-26T03:57:04;1.00;92.50
47779;DHT22;33538;48.432;11.350;2023-02-26T03:59:31;1.00;92.70
47779;DHT22;33538;48.432;11.350;2023-02-26T04:02:02;1.00;92.50
47779;DHT22;33538;48.432;11.350;2023-02-26T04:04:34;1.00;92.80
47779;DHT22;33538;48.432;11.350;2023-02-26T04:07:03;1.10;92.70
47779;DHT22;33538;48.432;11.350;2023-02-26T04:09:29;1.10;92.40
47779;DHT22;33538;48.432;11.350;2023-02-26T04:11:57;1.00;92.30
47779;DHT22;33538;48.432;11.350;2023-02-26T04:14:24;1.00;92.50
47779;DHT22;33538;48.432;11.350;2023-02-26T04:16:51;1.00;92.00
47779;DHT22;33538;48.432;11.350;2023-02-26T04:19:19;0.90;91.90
47779;DHT22;33538;48.432;11.350;2023-02-26T04:21:46;0.90;92.30
47779;DHT22;33538;48.432;11.350;2023-02-26T04:24:13;0.90;92.30
47779;DHT22;33538;48.432;11.350;2023-02-26T04:26:39;0.90;92.00
47779;DHT22;33538;48.432;11.350;2023-02-26T04:29:06;0.90;92.60
47779;DHT22;33538;48.432;11.350;2023-02-26T04:31:33;0.90;91.80
47779;DHT22;33538;48.432;11.350;2023-02-26T04:34:00;0.90;91.90
47779;DHT22;33538;48.432;11.350;2023-02-26T04:36:28;0.90;91.90
47779;DHT22;33538;48.432;11.350;2023-02-26T04:38:55;0.90;91.70
47779;DHT22;33538;48.432;11.350;2023-02-26T04:41:22;0.90;91.50
47779;DHT22;33538;48.432;11.350;2023-02-26T04:43:49;0.80;91.40
47779;DHT22;33538;48.432;11.350;2023-02-26T04:46:15;0.70;91.30
47779;DHT22;33538;48.432;11.350;2023-02-26T04:48:42;0.80;91.70
47779;DHT22;33538;48.432;11.350;2023-02-26T04:51:09;0.80;91.00
47779;DHT22;33538;48.432;11.350;2023-02-26T04:53:37;0.70;91.00
47779;DHT22;33538;48.432;11.350;2023-02-26T04:56:04;0.70;91.50
47779;DHT22;33538;48.432;11.350;2023-02-26T04:58:31;0.70;91.20
47779;DHT22;33538;48.432;11.350;2023-02-26T05:00:58;0.70;91.40
47779;DHT22;33538;48.432;11.350;2023-02-26T05:03:25;0.70;91.20
47779;DHT22;33538;48.432;11.350;2023-02-26T05:05:52;0.60;91.20
47779;DHT22;33538;48.432;11.350;2023-02-26T05:08:19;0.60;91.30
47779;DHT22;33538;48.432;11.350;2023-02-26T05:10:47;0.50;91.20
47779;DHT22;33538;48.432;11.350;2023-02-26T05:13:14;0.50;91.50
47779;DHT22;33538;48.432;11.350;2023-02-26T05:15:40;0.50;91.40
47779;DHT22;33538;48.432;11.350;2023-02-26T05:18:07;0.40;91.50
47779;DHT22;33538;48.432;11.350;2023-02-26T05:20:34;0.40;91.50
47779;DHT22;33538;48.432;11.350;2023-02-26T05:23:01;0.40;91.70
47779;DHT22;33538;48.432;11.350;2023-02-26T05:25:28;0.40;91.50
47779;DHT22;33538;48.432;11.350;2023-02-26T05:27:56;0.40;91.50
47779;DHT22;33538;48.432;11.350;2023-02-26T05:30:23;0.30;91.50
47779;DHT22;33538;48.432;11.350;2023-02-26T05:32:49;0.20;91.50
47779;DHT22;33538;48.432;11.350;2023-02-26T05:35:16;0.20;91.30
47779;DHT22;33538;48.432;11.350;2023-02-26T05:37:43;0.20;91.30
47779;DHT22;33538;48.432;11.350;2023-02-26T05:40:11;0.20;91.20
47779;DHT22;33538;48.432;11.350;2023-02-26T05:42:38;0.30;91.30
47779;DHT22;33538;48.432;11.350;2023-02-26T05:45:07;0.30;91.20
47779;DHT22;33538;48.432;11.350;2023-02-26T05:47:35;0.20;91.30
47779;DHT22;33538;48.432;11.350;2023-02-26T05:50:02;0.20;91.40
47779;DHT22;33538;48.432;11.350;2023-02-26T05:52:29;0.20;91.40
47779;DHT22;33538;48.432;11.350;2023-02-26T05:54:56;0.20;91.70
47779;DHT22;33538;48.432;11.350;2023-02-26T05:57:23;0.20;91.40
47779;DHT22;33538;48.432;11.350;2023-02-26T05:59:50;0.10;91.30
47779;DHT22;33538;48.432;11.350;2023-02-26T06:02:18;0.10;91.50
47779;DHT22;33538;48.432;11.350;2023-02-26T06:04:45;0.20;91.40
47779;DHT22;33538;48.432;11.350;2023-02-26T06:07:12;0.20;91.50
47779;DHT22;33538;48.432;11.350;2023-02-26T06:09:39;0.20;91.40
47779;DHT22;33538;48.432;11.350;2023-02-26T06:12:06;0.10;91.50
47779;DHT22;33538;48.432;11.350;2023-02-26T06:14:33;0.10;91.30
47779;DHT22;33538;48.432;11.350;2023-02-26T06:17:00;0.10;91.20
47779;DHT22;33538;48.432;11.350;2023-02-26T06:19:28;0.10;91.10
47779;DHT22;33538;48.432;11.350;2023-02-26T06:21:55;0.20;91.30
47779;DHT22;33538;48.432;11.350;2023-02-26T06:24:22;0.00;91.10
47779;DHT22;33538;48.432;11.350;2023-02-26T06:26:49;0.00;91.60
47779;DHT22;33538;48.432;11.350;2023-02-26T06:29:15;0.00;91.70
47779;DHT22;33538;48.432;11.350;2023-02-26T06:31:42;-0.10;91.60
47779;DHT22;33538;48.432;11.350;2023-02-26T06:34:09;0.00;91.70
47779;DHT22;33538;48.432;11.350;2023-02-26T06:36:37;0.00;91.30
47779;DHT22;33538;48.432;11.350;2023-02-26T06:39:04;0.00;91.50
47779;DHT22;33538;48.432;11.350;2023-02-26T06:41:31;0.00;91.70
47779;DHT22;33538;48.432;11.350;2023-02-26T06:43:58;0.00;91.70
47779;DHT22;33538;48.432;11.350;2023-02-26T06:46:25;0.00;91.60
47779;DHT22;33538;48.432;11.350;2023-02-26T06:48:52;0.10;91.70
47779;DHT22;33538;48.432;11.350;2023-02-26T06:51:19;0.10;91.40
47779;DHT22;33538;48.432;11.350;2023-02-26T06:53:47;0.10;91.40
47779;DHT22;33538;48.432;11.350;2023-02-26T06:56:13;0.20;91.10
47779;DHT22;33538;48.432;11.350;2023-02-26T06:58:40;0.20;91.10
47779;DHT22;33538;48.432;11.350;2023-02-26T07:01:07;0.20;91.10
47779;DHT22;33538;48.432;11.350;2023-02-26T07:03:34;0.20;91.30
47779;DHT22;33538;48.432;11.350;2023-02-26T07:06:00;0.20;91.20
47779;DHT22;33538;48.432;11.350;2023-02-26T07:08:48;0.20;91.20
47779;DHT22;33538;48.432;11.350;2023-02-26T07:11:15;0.30;91.10
47779;DHT22;33538;48.432;11.350;2023-02-26T07:13:42;0.30;90.90
47779;DHT22;33538;48.432;11.350;2023-02-26T07:16:09;0.30;90.90
47779;DHT22;33538;48.432;11.350;2023-02-26T07:18:36;0.40;90.80
47779;DHT22;33538;48.432;11.350;2023-02-26T07:21:04;0.30;90.70
47779;DHT22;33538;48.432;11.350;2023-02-26T07:23:31;0.30;90.80
47779;DHT22;33538;48.432;11.350;2023-02-26T07:25:59;0.30;90.60
47779;DHT22;33538;48.432;11.350;2023-02-26T07:28:25;0.30;91.00
47779;DHT22;33538;48.432;11.350;2023-02-26T07:30:53;0.40;91.00
47779;DHT22;33538;48.432;11.350;2023-02-26T07:33:20;0.40;91.00
47779;DHT22;33538;48.432;11.350;2023-02-26T07:35:47;0.40;90.90
47779;DHT22;33538;48.432;11.350;2023-02-26T07:38:14;0.40;90.60
47779;DHT22;33538;48.432;11.350;2023-02-26T07:40:43;0.50;90.50
47779;DHT22;33538;48.432;11.350;2023-02-26T07:43:15;0.50;90.80
47779;DHT22;33538;48.432;11.350;2023-02-26T07:45:48;0.50;90.60
47779;DHT22;33538;48.432;11.350;2023-02-26T07:48:16;0.50;90.60
47779;DHT22;33538;48.432;11.350;2023-02-26T07:50:45;0.50;90.60
47779;DHT22;33538;48.432;11.350;2023-02-26T07:53:13;0.50;91.30
47779;DHT22;33538;48.432;11.350;2023-02-26T07:55:40;0.60;91.60
47779;DHT22;33538;48.432;11.350;2023-02-26T07:58:15;0.60;91.40
47779;DHT22;33538;48.432;11.350;2023-02-26T08:00:44;0.60;91.10
47779;DHT22;33538;48.432;11.350;2023-02-26T08:03:11;0.60;90.90
47779;DHT22;33538;48.432;11.350;2023-02-26T08:05:40;0.60;91.10
47779;DHT22;33538;48.432;11.350;2023-02-26T08:08:08;0.60;90.90
47779;DHT22;33538;48.432;11.350;2023-02-26T08:10:38;0.70;91.00
47779;DHT22;33538;48.432;11.350;2023-02-26T08:13:08;0.70;91.10
47779;DHT22;33538;48.432;11.350;2023-02-26T08:15:50;0.70;92.70
47779;DHT22;33538;48.432;11.350;2023-02-26T08:18:18;0.70;92.30
47779;DHT22;33538;48.432;11.350;2023-02-26T08:20:51;0.80;92.40
47779;DHT22;33538;48.432;11.350;2023-02-26T08:23:25;0.80;92.30
47779;DHT22;33538;48.432;11.350;2023-02-26T08:25:59;0.70;93.50
47779;DHT22;33538;48.432;11.350;2023-02-26T08:28:27;0.80;92.50
47779;DHT22;33538;48.432;11.350;2023-02-26T08:30:56;0.80;92.30
47779;DHT22;33538;48.432;11.350;2023-02-26T08:33:24;0.80;92.20
47779;DHT22;33538;48.432;11.350;2023-02-26T08:35:51;0.90;92.60
47779;DHT22;33538;48.432;11.350;2023-02-26T08:38:19;0.90;92.00
47779;DHT22;33538;48.432;11.350;2023-02-26T08:40:55;0.80;92.00
47779;DHT22;33538;48.432;11.350;2023-02-26T08:43:23;0.90;92.10
47779;DHT22;33538;48.432;11.350;2023-02-26T08:45:56;0.90;92.10
47779;DHT22;33538;48.432;11.350;2023-02-26T08:48:24;0.90;91.90
47779;DHT22;33538;48.432;11.350;2023-02-26T08:50:54;0.90;92.10
47779;DHT22;33538;48.432;11.350;2023-02-26T08:53:27;1.00;91.90
47779;DHT22;33538;48.432;11.350;2023-02-26T08:55:54;1.10;91.80
47779;DHT22;33538;48.432;11.350;2023-02-26T08:58:22;1.10;91.70
47779;DHT22;33538;48.432;11.350;2023-02-26T09:00:50;1.00;91.50
47779;DHT22;33538;48.432;11.350;2023-02-26T09:03:21;1.10;91.50
47779;DHT22;33538;48.432;11.350;2023-02-26T09:05:49;1.10;91.70
47779;DHT22;33538;48.432;11.350;2023-02-26T09:08:17;1.00;91.40
47779;DHT22;33538;48.432;11.350;2023-02-26T09:10:45;1.10;91.40
47779;DHT22;33538;48.432;11.350;2023-02-26T09:13:14;1.10;91.50
47779;DHT22;33538;48.432;11.350;2023-02-26T09:15:43;1.10;91.60
47779;DHT22;33538;48.432;11.350;2023-02-26T09:18:10;1.10;91.60
47779;DHT22;33538;48.432;11.350;2023-02-26T09:20:40;1.10;91.70
47779;DHT22;33538;48.432;11.350;2023-02-26T09:23:06;1.10;91.60
47779;DHT22;33538;48.432;11.350;2023-02-26T09:25:33;1.10;91.60
47779;DHT22;33538;48.432;11.350;2023-02-26T09:28:00;1.10;91.60
47779;DHT22;33538;48.432;11.350;2023-02-26T09:30:27;1.00;91.70
47779;DHT22;33538;48.432;11.350;2023-02-26T09:32:54;1.00;92.00
47779;DHT22;33538;48.432;11.350;2023-02-26T09:35:21;1.00;92.00
47779;DHT22;33538;48.432;11.350;2023-02-26T09:37:49;1.00;92.10
47779;DHT22;33538;48.432;11.350;2023-02-26T09:40:23;1.10;91.70
47779;DHT22;33538;48.432;11.350;2023-02-26T09:43:06;1.10;91.80
47779;DHT22;33538;48.432;11.350;2023-02-26T09:45:38;1.00;92.00
47779;DHT22;33538;48.432;11.350;2023-02-26T09:48:10;1.00;92.00
47779;DHT22;33538;48.432;11.350;2023-02-26T09:50:40;1.10;92.20
47779;DHT22;33538;48.432;11.350;2023-02-26T09:53:15;1.10;92.10
47779;DHT22;33538;48.432;11.350;2023-02-26T09:55:44;1.20;92.00
47779;DHT22;33538;48.432;11.350;2023-02-26T09:58:18;1.20;92.20
47779;DHT22;33538;48.432;11.350;2023-02-26T10:00:51;1.20;91.80
47779;DHT22;33538;48.432;11.350;2023-02-26T10:03:26;1.20;92.20
47779;DHT22;33538;48.432;11.350;2023-02-26T10:06:14;1.20;91.90
47779;DHT22;33538;48.432;11.350;2023-02-26T10:08:50;1.20;92.20
47779;DHT22;33538;48.432;11.350;2023-02-26T10:11:26;1.20;92.00
47779;DHT22;33538;48.432;11.350;2023-02-26T10:13:59;1.20;92.20
47779;DHT22;33538;48.432;11.350;2023-02-26T10:16:31;1.40;92.10
47779;DHT22;33538;48.432;11.350;2023-02-26T10:19:03;1.30;92.00
47779;DHT22;33538;48.432;11.350;2023-02-26T10:21:34;1.30;92.10
47779;DHT22;33538;48.432;11.350;2023-02-26T10:24:09;1.30;92.30
47779;DHT22;33538;48.432;11.350;2023-02-26T10:26:39;1.40;92.10
47779;DHT22;33538;48.432;11.350;2023-02-26T10:29:16;1.40;92.00
47779;DHT22;33538;48.432;11.350;2023-02-26T10:31:58;1.40;92.10
47779;DHT22;33538;48.432;11.350;2023-02-26T10:34:29;1.40;91.90
47779;DHT22;33538;48.432;11.350;2023-02-26T10:37:02;1.30;92.80
47779;DHT22;33538;48.432;11.350;2023-02-26T10:39:34;1.40;93.40
47779;DHT22;33538;48.432;11.350;2023-02-26T10:42:11;1.30;92.70
47779;DHT22;33538;48.432;11.350;2023-02-26T10:44:45;1.30;93.00
47779;DHT22;33538;48.432;11.350;2023-02-26T10:50:03;1.40;92.50
47779;DHT22;33538;48.432;11.350;2023-02-26T10:52:32;1.40;92.20
47779;DHT22;33538;48.432;11.350;2023-02-26T10:55:19;1.50;92.60
47779;DHT22;33538;48.432;11.350;2023-02-26T10:57:54;1.50;92.60
47779;DHT22;33538;48.432;11.350;2023-02-26T11:00:22;1.60;92.70
47779;DHT22;33538;48.432;11.350;2023-02-26T11:02:50;1.40;92.50
47779;DHT22;33538;48.432;11.350;2023-02-26T11:05:20;1.40;92.30
47779;DHT22;33538;48.432;11.350;2023-02-26T11:07:50;1.40;92.50
47779;DHT22;33538;48.432;11.350;2023-02-26T11:10:23;1.50;92.90
47779;DHT22;33538;48.432;11.350;2023-02-26T11:12:50;1.60;92.60
47779;DHT22;33538;48.432;11.350;2023-02-26T11:15:20;1.70;92.30
47779;DHT22;33538;48.432;11.350;2023-02-26T11:17:48;1.70;91.70
47779;DHT22;33538;48.432;11.350;2023-02-26T11:20:28;1.70;91.70
47779;DHT22;33538;48.432;11.350;2023-02-26T11:22:57;1.80;92.10
47779;DHT22;33538;48.432;11.350;2023-02-26T11:25:29;1.80;91.30
47779;DHT22;33538;48.432;11.350;2023-02-26T11:28:00;1.80;91.00
47779;DHT22;33538;48.432;11.350;2023-02-26T11:30:31;1.90;91.00
47779;DHT22;33538;48.432;11.350;2023-02-26T11:33:05;1.90;90.90
47779;DHT22;33538;48.432;11.350;2023-02-26T11:35:32;1.80;90.90
47779;DHT22;33538;48.432;11.350;2023-02-26T11:38:01;1.80;90.70
47779;DHT22;33538;48.432;11.350;2023-02-26T11:40:33;1.70;90.40
47779;DHT22;33538;48.432;11.350;2023-02-26T11:43:04;1.70;90.80
47779;DHT22;33538;48.432;11.350;2023-02-26T11:45:33;1.70;90.00
47779;DHT22;33538;48.432;11.350;2023-02-26T11:48:03;1.70;90.80
47779;DHT22;33538;48.432;11.350;2023-02-26T11:50:37;1.80;91.10
47779;DHT22;33538;48.432;11.350;2023-02-26T11:53:16;1.80;90.60
47779;DHT22;33538;48.432;11.350;2023-02-26T11:55:45;1.90;90.40
47779;DHT22;33538;48.432;11.350;2023-02-26T11:58:17;1.90;89.80
47779;DHT22;33538;48.432;11.350;2023-02-26T12:00:44;1.90;90.00
47779;DHT22;33538;48.432;11.350;2023-02-26T12:03:16;1.90;89.20
47779;DHT22;33538;48.432;11.350;2023-02-26T12:05:43;1.90;89.90
47779;DHT22;33538;48.432;11.350;2023-02-26T12:08:16;1.90;90.10
47779;DHT22;33538;48.432;11.350;2023-02-26T12:10:53;1.90;88.60
47779;DHT22;33538;48.432;11.350;2023-02-26T12:13:32;2.00;90.20
47779;DHT22;33538;48.432;11.350;2023-02-26T12:16:05;1.90;88.80
47779;DHT22;33538;48.432;11.350;2023-02-26T12:18:46;1.90;87.60
47779;DHT22;33538;48.432;11.350;2023-02-26T12:21:25;1.90;89.70
47779;DHT22;33538;48.432;11.350;2023-02-26T12:24:11;1.90;89.70
47779;DHT22;33538;48.432;11.350;2023-02-26T12:26:50;2.00;89.00
47779;DHT22;33538;48.432;11.350;2023-02-26T12:38:25;1.70;90.70
47779;DHT22;33538;48.432;11.350;2023-02-26T12:43:54;1.80;90.60
47779;DHT22;33538;48.432;11.350;2023-02-26T12:46:38;1.80;90.70
47779;DHT22;33538;48.432;11.350;2023-02-26T12:49:30;1.70;90.20
47779;DHT22;33538;48.432;11.350;2023-02-26T12:52:13;1.70;90.10
47779;DHT22;33538;48.432;11.350;2023-02-26T12:54:56;1.70;90.10
47779;DHT22;33538;48.432;11.350;2023-02-26T12:57:56;1.80;90.00
47779;DHT22;33538;48.432;11.350;2023-02-26T13:00:39;1.80;89.50
47779;DHT22;33538;48.432;11.350;2023-02-26T13:06:47;1.80;89.50
47779;DHT22;33538;48.432;11.350;2023-02-26T13:09:28;1.80;88.80
47779;DHT22;33538;48.432;11.350;2023-02-26T13:12:04;1.80;88.30
47779;DHT22;33538;48.432;11.350;2023-02-26T13:14:40;1.90;90.00
47779;DHT22;33538;48.432;11.350;2023-02-26T13:17:15;2.00;89.90
47779;DHT22;33538;48.432;11.350;2023-02-26T13:19:46;2.00;89.10
47779;DHT22;33538;48.432;11.350;2023-02-26T13:22:19;2.10;90.00
47779;DHT22;33538;48.432;11.350;2023-02-26T13:24:50;2.10;88.20
47779;DHT22;33538;48.432;11.350;2023-02-26T13:27:21;2.10;89.30
47779;DHT22;33538;48.432;11.350;2023-02-26T13:29:58;2.10;87.80
47779;DHT22;33538;48.432;11.350;2023-02-26T13:32:28;2.10;88.70
47779;DHT22;33538;48.432;11.350;2023-02-26T13:34:58;2.10;87.70
47779;DHT22;33538;48.432;11.350;2023-02-26T13:37:29;2.10;87.90
47779;DHT22;33538;48.432;11.350;2023-02-26T13:40:15;2.10;88.80
47779;DHT22;33538;48.432;11.350;2023-02-26T13:42:53;2.00;86.40
47779;DHT22;33538;48.432;11.350;2023-02-26T13:45:33;2.00;86.60
47779;DHT22;33538;48.432;11.350;2023-02-26T13:48:12;2.00;87.80
47779;DHT22;33538;48.432;11.350;2023-02-26T13:50:50;2.10;87.30
47779;DHT22;33538;48.432;11.350;2023-02-26T13:53:35;2.00;85.90
47779;DHT22;33538;48.432;11.350;2023-02-26T13:56:11;2.00;87.40
47779;DHT22;33538;48.432;11.350;2023-02-26T13:58:41;2.00;87.40
47779;DHT22;33538;48.432;11.350;2023-02-26T14:01:13;2.00;85.90
47779;DHT22;33538;48.432;11.350;2023-02-26T14:03:45;2.00;86.00
47779;DHT22;33538;48.432;11.350;2023-02-26T14:06:35;2.00;86.60
47779;DHT22;33538;48.432;11.350;2023-02-26T14:09:04;2.00;85.50
47779;DHT22;33538;48.432;11.350;2023-02-26T14:11:44;2.00;85.80
47779;DHT22;33538;48.432;11.350;2023-02-26T14:14:18;2.00;85.90
47779;DHT22;33538;48.432;11.350;2023-02-26T14:16:53;2.00;85.30
47779;DHT22;33538;48.432;11.350;2023-02-26T14:19:30;1.90;84.70
47779;DHT22;33538;48.432;11.350;2023-02-26T14:22:13;2.00;86.00
47779;DHT22;33538;48.432;11.350;2023-02-26T14:24:44;2.00;86.80
47779;DHT22;33538;48.432;11.350;2023-02-26T14:27:29;2.10;87.50
47779;DHT22;33538;48.432;11.350;2023-02-26T14:29:59;2.10;86.20
47779;DHT22;33538;48.432;11.350;2023-02-26T14:32:30;2.00;84.80
47779;DHT22;33538;48.432;11.350;2023-02-26T14:35:03;2.00;86.50
47779;DHT22;33538;48.432;11.350;2023-02-26T14:37:32;2.00;86.90
47779;DHT22;33538;48.432;11.350;2023-02-26T14:40:04;2.10;87.50
47779;DHT22;33538;48.432;11.350;2023-02-26T14:42:34;1.90;91.50
47779;DHT22;33538;48.432;11.350;2023-02-26T14:45:12;1.90;90.90
47779;DHT22;33538;48.432;11.350;2023-02-26T14:47:43;1.90;90.00
47779;DHT22;33538;48.432;11.350;2023-02-26T14:50:14;2.00;90.10
47779;DHT22;33538;48.432;11.350;2023-02-26T14:52:50;2.00;88.90
47779;DHT22;33538;48.432;11.350;2023-02-26T14:55:40;2.00;89.30
47779;DHT22;33538;48.432;11.350;2023-02-26T14:58:24;1.90;88.60
47779;DHT22;33538;48.432;11.350;2023-02-26T15:01:03;1.90;87.40
47779;DHT22;33538;48.432;11.350;2023-02-26T15:04:01;1.90;89.30
47779;DHT22;33538;48.432;11.350;2023-02-26T15:06:49;1.90;88.60
47779;DHT22;33538;48.432;11.350;2023-02-26T15:09:21;1.90;87.70
47779;DHT22;33538;48.432;11.350;2023-02-26T15:12:17;1.90;87.10
47779;DHT22;33538;48.432;11.350;2023-02-26T15:14:58;1.80;84.60
47779;DHT22;33538;48.432;11.350;2023-02-26T15:17:43;1.90;87.60
47779;DHT22;33538;48.432;11.350;2023-02-26T15:20:20;1.80;86.70
47779;DHT22;33538;48.432;11.350;2023-02-26T15:23:06;1.80;86.00
47779;DHT22;33538;48.432;11.350;2023-02-26T15:25:39;1.90;87.70
47779;DHT22;33538;48.432;11.350;2023-02-26T15:28:13;1.90;87.80
47779;DHT22;33538;48.432;11.350;2023-02-26T15:30:47;1.80;86.00
47779;DHT22;33538;48.432;11.350;2023-02-26T15:33:14;1.80;87.40
47779;DHT22;33538;48.432;11.350;2023-02-26T15:35:42;1.90;87.80
47779;DHT22;33538;48.432;11.350;2023-02-26T15:38:10;1.80;87.00
47779;DHT22;33538;48.432;11.350;2023-02-26T15:40:37;1.80;86.80
47779;DHT22;33538;48.432;11.350;2023-02-26T15:43:06;1.80;88.20
47779;DHT22;33538;48.432;11.350;2023-02-26T15:45:36;1.80;87.90
47779;DHT22;33538;48.432;11.350;2023-02-26T15:48:06;1.70;87.50
47779;DHT22;33538;48.432;11.350;2023-02-26T15:50:36;1.70;86.90
47779;DHT22;33538;48.432;11.350;2023-02-26T15:53:05;1.70;87.80
47779;DHT22;33538;48.432;11.350;2023-02-26T15:55:36;1.80;88.10
47779;DHT22;33538;48.432;11.350;2023-02-26T15:58:05;1.80;87.80
47779;DHT22;33538;48.432;11.350;2023-02-26T16:00:35;1.80;88.00
47779;DHT22;33538;48.432;11.350;2023-02-26T16:03:02;1.80;87.60
47779;DHT22;33538;48.432;11.350;2023-02-26T16:05:29;1.80;89.30
47779;DHT22;33538;48.432;11.350;2023-02-26T16:07:56;1.70;92.00
47779;DHT22;33538;48.432;11.350;2023-02-26T16:10:31;1.60;99.90
47779;DHT22;33538;48.432;11.350;2023-02-26T16:13:00;1.40;97.40
47779;DHT22;33538;48.432;11.350;2023-02-26T16:15:31;1.50;97.50